Time;durP1;ratioP1;P1;durP2;ratioP2;P2;SDS_P1;SDS_P2;PMS_P1;PMS_P2;Temp;Humidity;BMP_temperature;BMP_pressure;BME280_temperature;BME280_humidity;BME280_pressure;Samples;Min_cycle;Max_cycle;Signal;HPM_P1;HPM_P2
2024/02/08 00:01:37;;;;;;;8.68;4.00;;;;;;;-7.16;65.30;97106.47;4783066;29;20059;-63
2024/02/08 00:04:03;;;;;;;8.45;3.38;;;;;;;-7.32;65.24;97120.50;4798181;29;20108;-62
2024/02/08 00:06:31;;;;;;;8.23;3.75;;;;;;;-7.18;65.48;97132.56;4769595;29;20047;-63
2024/02/08 00:09:00;;;;;;;8.23;3.63;;;;;;;-7.24;65.39;97132.44;4782520;29;20567;-63
2024/02/08 00:11:32;;;;;;;8.93;4.50;;;;;;;-7.35;65.71;97125.50;4793541;29;20047;-63
2024/02/08 00:13:58;;;;;;;8.82;3.97;;;;;;;-7.29;65.45;97140.78;4792693;29;20053;-63
2024/02/08 00:16:24;;;;;;;5.50;2.97;;;;;;;-7.22;65.19;97158.59;4779797;29;20057;-63
2024/02/08 00:18:50;;;;;;;7.80;3.20;;;;;;;-7.42;65.30;97136.34;4751164;29;20467;-64
2024/02/08 00:21:16;;;;;;;7.30;3.35;;;;;;;-7.34;65.13;97165.13;4782719;29;20122;-64
2024/02/08 00:23:43;;;;;;;8.40;3.78;;;;;;;-7.39;65.32;97179.31;4796107;29;20172;-65
2024/02/08 00:26:08;;;;;;;7.30;3.28;;;;;;;-7.68;65.14;97149.28;4796022;29;20038;-64
2024/02/08 00:28:35;;;;;;;7.43;3.40;;;;;;;-7.67;64.91;97191.41;4779308;29;20050;-64
2024/02/08 00:31:04;;;;;;;6.07;3.13;;;;;;;-7.84;65.29;97168.31;4782015;29;20456;-63
2024/02/08 00:33:33;;;;;;;8.95;3.20;;;;;;;-7.72;64.89;97205.59;4779175;29;20411;-63
2024/02/08 00:36:00;;;;;;;8.35;3.45;;;;;;;-7.92;64.68;97192.53;4782243;29;20104;-63
2024/02/08 00:38:30;;;;;;;8.60;3.97;;;;;;;-8.10;65.07;97196.34;4793671;29;20097;-63
2024/02/08 00:40:56;;;;;;;5.20;2.90;;;;;;;-8.27;64.69;97211.06;4752062;29;20074;-63
2024/02/08 00:43:23;;;;;;;6.20;3.22;;;;;;;-8.23;65.02;97225.47;4781422;29;20494;-64
2024/02/08 00:45:49;;;;;;;7.80;3.25;;;;;;;-8.17;65.15;97243.31;4766031;29;20099;-65
2024/02/08 00:48:15;;;;;;;7.13;3.30;;;;;;;-8.41;63.36;97237.66;4766627;29;20571;-64
2024/02/08 00:50:41;;;;;;;6.70;3.33;;;;;;;-8.51;64.30;97241.63;4782313;29;20065;-64
2024/02/08 00:53:07;;;;;;;9.32;3.60;;;;;;;-8.61;64.60;97250.63;4794953;29;20058;-63
2024/02/08 00:55:36;;;;;;;7.53;3.45;;;;;;;-8.55;64.74;97260.03;4781152;29;20466;-63
2024/02/08 00:58:02;;;;;;;7.75;3.63;;;;;;;-8.81;64.74;97233.31;4765875;29;20043;-64
2024/02/08 01:00:30;;;;;;;6.00;2.67;;;;;;;-8.70;64.22;97265.50;4778294;29;20054;-63
2024/02/08 01:02:59;;;;;;;8.25;3.80;;;;;;;-8.76;64.34;97272.94;4778827;29;20050;-65
2024/02/08 01:05:25;;;;;;;9.25;3.83;;;;;;;-8.86;64.46;97279.41;4794650;29;20054;-64
2024/02/08 01:07:51;;;;;;;9.43;3.72;;;;;;;-8.77;64.72;97297.28;4796991;29;20050;-63
2024/02/08 01:10:18;;;;;;;7.13;3.35;;;;;;;-8.78;64.16;97309.06;4766060;29;20196;-62
2024/02/08 01:12:44;;;;;;;7.15;3.75;;;;;;;-8.96;64.28;97308.53;4781491;29;20592;-64
2024/02/08 01:15:14;;;;;;;7.15;3.40;;;;;;;-8.98;63.89;97327.81;4766419;29;20572;-64
2024/02/08 01:17:41;;;;;;;7.90;3.47;;;;;;;-9.35;63.70;97321.66;4795279;29;20047;-63
2024/02/08 01:20:08;;;;;;;7.18;3.42;;;;;;;-9.35;64.05;97346.84;4760235;29;20074;-63
2024/02/08 01:22:34;;;;;;;6.28;3.53;;;;;;;-9.41;64.60;97353.44;4779436;29;20166;-63
2024/02/08 01:25:01;;;;;;;6.72;3.33;;;;;;;-9.28;64.10;97367.28;4775920;29;20565;-64
2024/02/08 01:27:30;;;;;;;7.55;3.42;;;;;;;-9.22;64.56;97381.72;4793469;29;20050;-63
2024/02/08 01:29:59;;;;;;;8.25;3.92;;;;;;;-9.15;64.56;97382.75;4792592;29;20062;-63
2024/02/08 01:32:27;;;;;;;7.45;3.40;;;;;;;-9.17;64.42;97390.28;4780350;29;20149;-63
2024/02/08 01:34:54;;;;;;;8.48;3.50;;;;;;;-9.33;64.43;97388.94;4780660;29;20141;-63
2024/02/08 01:37:20;;;;;;;7.57;3.65;;;;;;;-9.35;64.08;97403.16;4765631;29;20660;-62
2024/02/08 01:39:46;;;;;;;6.70;3.15;;;;;;;-9.46;64.02;97417.06;4777478;29;20137;-64
2024/02/08 01:42:14;;;;;;;5.57;2.80;;;;;;;-9.57;64.22;97417.59;4776932;29;20122;-63
2024/02/08 01:44:47;;;;;;;6.50;3.05;;;;;;;-9.65;63.61;97428.22;4764383;29;20133;-62
2024/02/08 01:47:17;;;;;;;6.13;2.78;;;;;;;-9.69;63.94;97438.19;4761826;29;20519;-65
2024/02/08 01:49:46;;;;;;;7.57;3.53;;;;;;;-9.64;64.51;97430.78;4777308;29;20058;-65
2024/02/08 01:52:18;;;;;;;6.18;3.08;;;;;;;-9.81;64.16;97417.63;4793973;29;20161;-63
2024/02/08 01:54:48;;;;;;;8.93;3.60;;;;;;;-9.78;64.03;97439.53;4762893;29;20099;-63
2024/02/08 01:57:15;;;;;;;6.38;2.80;;;;;;;-9.72;64.49;97435.56;4778956;29;20043;-65
2024/02/08 01:59:47;;;;;;;7.32;3.30;;;;;;;-9.56;64.14;97453.69;4780838;29;20191;-64
2024/02/08 02:02:15;;;;;;;7.88;3.33;;;;;;;-9.94;63.21;97433.13;4794652;29;20225;-62
2024/02/08 02:04:41;;;;;;;7.63;3.37;;;;;;;-9.86;63.63;97480.41;4777046;29;20054;-63
2024/02/08 02:07:08;;;;;;;9.80;3.27;;;;;;;-9.87;64.04;97465.25;4792332;29;20043;-63
2024/02/08 02:09:35;;;;;;;9.23;3.38;;;;;;;-9.88;64.02;97476.97;4777387;29;20050;-63
2024/02/08 02:12:10;;;;;;;6.50;2.97;;;;;;;-9.85;64.11;97482.13;4793389;29;20113;-65
2024/02/08 02:14:38;;;;;;;8.90;3.60;;;;;;;-9.66;63.84;97505.41;4776720;29;20054;-63
2024/02/08 02:17:13;;;;;;;8.20;3.42;;;;;;;-9.64;64.16;97518.06;4794480;29;20110;-64
2024/02/08 02:19:40;;;;;;;6.90;3.20;;;;;;;-9.74;64.47;97512.69;4766330;29;20546;-62
2024/02/08 02:22:10;;;;;;;8.83;3.63;;;;;;;-9.72;63.55;97528.72;4794660;29;20510;-64
2024/02/08 02:24:40;;;;;;;5.90;2.78;;;;;;;-9.75;63.72;97525.25;4776762;29;20055;-64
2024/02/08 02:27:09;;;;;;;6.57;3.43;;;;;;;-10.03;63.29;97510.00;4794400;29;20043;-65
2024/02/08 02:29:38;;;;;;;7.63;3.43;;;;;;;-9.89;63.49;97540.69;4764034;29;20047;-64
2024/02/08 02:32:10;;;;;;;7.37;3.57;;;;;;;-9.92;63.52;97527.16;4779927;29;20502;-64
2024/02/08 02:34:42;;;;;;;7.37;3.40;;;;;;;-10.02;63.60;97511.72;4766356;29;20053;-63
2024/02/08 02:37:08;;;;;;;15.73;6.03;;;;;;;-9.82;63.90;97533.38;4769417;29;20050;-64
2024/02/08 02:39:34;;;;;;;10.95;4.30;;;;;;;-9.80;63.85;97535.13;4779458;29;20042;-64
2024/02/08 02:42:01;;;;;;;9.53;3.47;;;;;;;-9.73;63.38;97569.81;4791442;29;20080;-64
2024/02/08 02:44:27;;;;;;;6.70;3.70;;;;;;;-9.99;63.54;97539.50;4791861;29;20398;-64
2024/02/08 02:46:56;;;;;;;7.67;3.03;;;;;;;-9.85;63.56;97566.84;4776392;29;20511;-64
2024/02/08 02:49:23;;;;;;;8.80;2.83;;;;;;;-9.86;64.03;97570.19;4776912;29;20050;-65
2024/02/08 02:51:52;;;;;;;7.67;3.13;;;;;;;-9.96;63.57;97568.13;4792627;29;20050;-64
2024/02/08 02:54:22;;;;;;;9.27;3.30;;;;;;;-9.92;63.73;97574.97;4795307;29;20192;-63
2024/02/08 02:56:50;;;;;;;9.43;3.57;;;;;;;-10.06;63.12;97574.47;4791239;29;20046;-64
2024/02/08 02:59:17;;;;;;;11.50;3.77;;;;;;;-10.12;63.66;97590.22;4780480;29;20050;-65
2024/02/08 03:01:49;;;;;;;7.33;3.70;;;;;;;-10.24;63.36;97575.50;4764951;29;20104;-63
2024/02/08 03:04:17;;;;;;;9.73;3.50;;;;;;;-10.19;63.17;97589.13;4760011;29;20039;-64
2024/02/08 03:06:45;;;;;;;10.33;3.47;;;;;;;-10.47;63.39;97552.03;4793342;29;20187;-64
2024/02/08 03:09:15;;;;;;;9.47;4.07;;;;;;;-10.25;63.33;97591.41;4780910;29;20035;-64
2024/02/08 03:11:43;;;;;;;8.43;3.00;;;;;;;-10.22;63.72;97595.69;4792927;29;20096;-63
2024/02/08 03:14:11;;;;;;;8.80;3.20;;;;;;;-10.18;63.94;97605.06;4776930;29;20092;-64
2024/02/08 03:16:37;;;;;;;8.77;3.73;;;;;;;-10.28;64.04;97598.81;4778600;29;20042;-64
2024/02/08 03:19:05;;;;;;;8.87;3.37;;;;;;;-10.33;64.10;97603.69;4793189;29;20514;-63
2024/02/08 03:21:35;;;;;;;12.97;3.67;;;;;;;-10.23;63.21;97626.66;4774131;29;20043;-65
2024/02/08 03:24:09;;;;;;;9.00;3.60;;;;;;;-10.24;62.96;97628.34;4779235;29;20047;-65
2024/02/08 03:26:45;;;;;;;8.00;3.73;;;;;;;-10.28;63.44;97636.56;4779421;29;20431;-64
2024/02/08 03:29:12;;;;;;;7.80;3.63;;;;;;;-10.33;63.13;97641.41;4779545;29;20042;-63
2024/02/08 03:31:52;;;;;;;8.70;2.97;;;;;;;-10.28;63.25;97656.69;4779373;29;20051;-63
2024/02/08 03:34:29;;;;;;;8.60;3.50;;;;;;;-10.41;63.25;97647.00;4780653;29;20047;-63
2024/02/08 03:36:56;;;;;;;8.90;3.63;;;;;;;-10.43;63.10;97644.41;4775151;29;20110;-63
2024/02/08 03:39:25;;;;;;;10.97;4.07;;;;;;;-10.33;63.23;97660.66;4764731;29;20039;-65
2024/02/08 03:42:01;;;;;;;9.60;4.03;;;;;;;-10.34;62.96;97669.00;4764729;29;20054;-65
2024/02/08 03:44:31;;;;;;;8.83;3.33;;;;;;;-10.48;62.81;97660.97;4792808;29;20075;-63
2024/02/08 03:47:07;;;;;;;8.10;3.60;;;;;;;-10.47;63.14;97662.66;4780324;29;20419;-65
2024/02/08 03:49:35;;;;;;;7.57;3.37;;;;;;;-10.68;62.41;97663.53;4796913;29;20109;-66
2024/02/08 03:52:03;;;;;;;7.30;3.23;;;;;;;-10.64;62.63;97682.97;4767495;29;20070;-64
2024/02/08 03:54:33;;;;;;;8.70;3.50;;;;;;;-10.56;62.75;97688.31;4780550;29;20051;-64
2024/02/08 03:56:59;;;;;;;7.97;3.67;;;;;;;-10.51;62.68;97691.03;4795138;29;20042;-63
2024/02/08 03:59:26;;;;;;;8.27;3.90;;;;;;;-10.50;63.38;97692.75;4765995;29;20905;-64
2024/02/08 04:02:09;;;;;;;7.77;3.70;;;;;;;-10.55;63.02;97694.22;4765801;29;20415;-64
2024/02/08 04:04:54;;;;;;;6.73;3.00;;;;;;;-10.56;62.89;97695.00;4777686;29;20046;-64
2024/02/08 04:10:10;;;;;;;8.37;3.30;;;;;;;-10.91;62.82;97668.47;4775193;29;20047;-63
2024/02/08 04:54:02;;;;;;;9.53;3.60;;;;;;;-10.19;62.17;97764.38;4789012;29;20051;-64
2024/02/08 04:56:28;;;;;;;8.47;4.00;;;;;;;-10.12;62.31;97756.28;4778721;29;20522;-63
2024/02/08 04:58:54;;;;;;;8.07;3.73;;;;;;;-9.91;62.78;97765.47;4791272;29;20038;-63
2024/02/08 05:01:21;;;;;;;8.60;3.73;;;;;;;-10.00;62.16;97741.66;4791761;29;20047;-63
2024/02/08 05:03:47;;;;;;;7.53;3.63;;;;;;;-9.80;62.85;97754.16;4763942;29;20053;-63
2024/02/08 05:06:21;;;;;;;8.93;3.73;;;;;;;-9.64;62.14;97755.59;4795110;29;20788;-63
2024/02/08 05:08:50;;;;;;;9.97;4.33;;;;;;;-9.38;62.63;97776.72;4763865;29;20432;-63
2024/02/08 05:11:16;;;;;;;7.47;3.60;;;;;;;-9.26;62.46;97783.88;4765588;29;20530;-66
2024/02/08 05:13:51;;;;;;;7.53;3.65;;;;;;;-9.16;62.41;97787.63;4779639;29;20047;-64
2024/02/08 05:16:18;;;;;;;6.93;3.42;;;;;;;-8.99;62.90;97793.28;4780970;29;20462;-65
2024/02/08 05:18:45;;;;;;;8.50;4.28;;;;;;;-8.91;62.11;97777.56;4795013;29;20043;-64
2024/02/08 05:21:12;;;;;;;7.73;3.83;;;;;;;-8.81;62.16;97782.13;4794796;29;20552;-65
2024/02/08 05:23:39;;;;;;;9.60;3.50;;;;;;;-8.51;62.54;97791.59;4794465;29;20411;-64
2024/02/08 05:26:08;;;;;;;9.23;4.10;;;;;;;-8.35;62.28;97782.84;4792202;29;20106;-65
2024/02/08 05:28:34;;;;;;;8.30;3.78;;;;;;;-8.09;62.40;97785.38;4796514;29;20051;-65
2024/02/08 05:31:01;;;;;;;7.20;3.33;;;;;;;-8.01;61.50;97814.25;4779788;29;20048;-64
2024/02/08 05:33:29;;;;;;;8.82;3.83;;;;;;;-8.17;61.66;97816.25;4794999;29;20503;-66
2024/02/08 05:35:56;;;;;;;11.88;3.80;;;;;;;-8.15;62.44;97811.25;4764394;29;20141;-64
2024/02/08 05:38:26;;;;;;;7.72;3.80;;;;;;;-8.16;61.71;97817.09;4794917;29;20051;-64
2024/02/08 05:40:52;;;;;;;7.63;3.60;;;;;;;-8.22;61.85;97817.78;4789024;29;20049;-63
2024/02/08 05:43:27;;;;;;;10.07;4.15;;;;;;;-8.27;62.13;97821.78;4795835;29;20043;-64
2024/02/08 05:45:54;;;;;;;8.07;3.55;;;;;;;-8.12;61.98;97841.66;4764705;29;20730;-64
2024/02/08 05:48:23;;;;;;;10.35;3.60;;;;;;;-8.10;61.51;97846.78;4780566;29;20145;-63
2024/02/08 05:50:57;;;;;;;9.10;3.75;;;;;;;-8.09;61.96;97851.84;4793333;29;20763;-64
2024/02/08 05:53:24;;;;;;;10.05;4.03;;;;;;;-7.99;62.38;97855.56;4764305;29;20070;-65
2024/02/08 05:55:53;;;;;;;7.25;3.70;;;;;;;-7.92;62.25;97861.66;4792605;29;20468;-65
2024/02/08 05:58:20;;;;;;;7.65;3.40;;;;;;;-7.87;62.22;97842.47;4780956;29;20112;-63
2024/02/08 06:00:52;;;;;;;9.45;4.30;;;;;;;-8.00;61.96;97827.75;4761429;29;20430;-62
2024/02/08 06:03:27;;;;;;;12.20;4.30;;;;;;;-7.82;62.23;97860.28;4780806;29;20371;-65
2024/02/08 06:06:16;;;;;;;10.35;4.13;;;;;;;-7.82;61.49;97865.34;4779795;29;20373;-65
2024/02/08 06:08:42;;;;;;;10.13;4.38;;;;;;;-7.93;61.79;97845.66;4781500;29;20054;-64
2024/02/08 06:11:23;;;;;;;9.20;3.97;;;;;;;-7.78;62.13;97867.16;4776306;29;21072;-65
2024/02/08 06:13:59;;;;;;;10.68;4.70;;;;;;;-7.96;62.11;97835.47;4780084;29;20042;-63
2024/02/08 06:16:45;;;;;;;8.02;3.80;;;;;;;-7.54;62.00;97868.78;4776335;29;20046;-63
2024/02/08 06:19:14;;;;;;;9.93;3.63;;;;;;;-7.22;62.03;97851.25;4780476;29;20054;-64
2024/02/08 06:21:45;;;;;;;7.53;4.13;;;;;;;-6.63;61.96;97858.88;4773061;29;20042;-64
2024/02/08 06:26:56;;;;;;;11.13;5.00;;;;;;;-5.87;61.31;97825.41;4794453;29;20050;-65
2024/02/08 06:29:26;;;;;;;10.27;3.97;;;;;;;-5.36;61.18;97838.41;4777056;29;20370;-63
2024/02/08 06:32:02;;;;;;;10.93;4.70;;;;;;;-3.79;61.23;97850.00;4766987;29;20046;-65
2024/02/08 06:34:47;;;;;;;9.40;4.40;;;;;;;-3.75;59.80;97828.88;4775943;29;20071;-65
2024/02/08 06:37:26;;;;;;;7.70;4.10;;;;;;;-3.71;59.37;97819.59;4791674;29;20047;-66
2024/02/08 06:39:56;;;;;;;8.85;4.65;;;;;;;-1.66;60.02;97876.56;4792214;29;20049;-68
2024/02/08 06:42:40;;;;;;;11.25;4.20;;;;;;;-0.44;59.20;97853.53;4778335;29;20039;-67
2024/02/08 06:45:44;;;;;;;9.00;4.18;;;;;;;-0.17;58.96;97846.81;4779670;29;20687;-65
2024/02/08 07:37:46;;;;;;;6.82;4.30;;;;;;;12.23;40.46;97869.69;4797384;29;20043;-65
2024/02/08 07:40:26;;;;;;;7.22;4.32;;;;;;;12.87;39.85;97875.38;4791485;29;20042;-65
2024/02/08 07:43:15;;;;;;;7.95;3.25;;;;;;;13.36;37.89;97887.72;4796429;29;20419;-65
2024/02/08 07:46:03;;;;;;;5.50;3.30;;;;;;;13.83;37.38;97886.25;4781802;29;20058;-65
2024/02/08 07:48:43;;;;;;;5.45;3.60;;;;;;;14.23;36.28;97891.13;4784373;29;20066;-66
2024/02/08 07:51:15;;;;;;;5.50;3.60;;;;;;;14.60;34.35;97866.38;4796123;29;20038;-65
2024/02/08 07:53:45;;;;;;;6.37;3.97;;;;;;;14.62;32.79;97858.44;4777445;29;20042;-63
2024/02/08 07:59:03;;;;;;;5.00;3.58;;;;;;;14.31;31.29;97899.38;4779863;29;20691;-65
2024/02/08 08:01:38;;;;;;;5.93;3.95;;;;;;;14.14;30.48;97880.22;4795371;29;20105;-65
2024/02/08 08:04:09;;;;;;;7.38;4.38;;;;;;;14.25;30.68;97891.88;4780020;29;20694;-66
2024/02/08 08:06:48;;;;;;;6.03;4.15;;;;;;;14.64;29.95;97906.31;4782491;29;20050;-65
2024/02/08 08:09:18;;;;;;;5.10;3.92;;;;;;;14.96;29.28;97902.84;4779151;29;20511;-66
2024/02/08 08:11:51;;;;;;;5.07;3.55;;;;;;;15.51;28.66;97904.88;4766932;29;20035;-65
2024/02/08 08:17:08;;;;;;;5.47;3.53;;;;;;;15.97;26.81;97900.44;4796148;29;20046;-64
2024/02/08 08:19:38;;;;;;;4.88;3.42;;;;;;;15.70;27.66;97913.41;4797724;29;20628;-65
2024/02/08 08:22:18;;;;;;;5.60;3.90;;;;;;;15.98;26.94;97914.41;4779434;29;20518;-69
2024/02/08 08:27:53;;;;;;;5.38;3.30;;;;;;;17.24;26.12;97910.00;4713394;30;20122;-66
2024/02/08 08:30:28;;;;;;;5.22;3.83;;;;;;;17.23;26.20;97918.81;4787692;29;20532;-65
2024/02/08 08:35:47;;;;;;;4.75;3.35;;;;;;;17.97;24.97;97913.84;4778045;29;20046;-67
2024/02/08 08:40:59;;;;;;;6.20;3.13;;;;;;;18.29;24.00;97936.25;4794850;29;20115;-65
2024/02/08 08:43:31;;;;;;;4.95;3.30;;;;;;;18.08;24.45;97941.22;4783226;29;20042;-66
2024/02/08 08:45:59;;;;;;;5.20;3.40;;;;;;;18.79;23.85;97938.84;4794951;29;20047;-65
2024/02/08 08:48:33;;;;;;;5.65;3.28;;;;;;;18.47;23.21;97929.69;4794092;29;20412;-67
2024/02/08 08:51:23;;;;;;;5.05;3.53;;;;;;;18.47;23.09;97936.72;4795550;29;20053;-66
2024/02/08 08:53:56;;;;;;;3.78;3.38;;;;;;;18.65;23.31;97943.31;4793656;29;20100;-65
2024/02/08 08:56:22;;;;;;;4.80;3.47;;;;;;;18.53;23.22;97946.81;4765862;29;20054;-66
2024/02/08 08:58:49;;;;;;;4.13;3.60;;;;;;;19.18;22.87;97955.38;4777323;29;20043;-66
2024/02/08 09:01:15;;;;;;;4.13;3.33;;;;;;;19.57;22.18;97945.44;4778995;29;20701;-67
2024/02/08 09:03:43;;;;;;;4.55;3.22;;;;;;;19.81;21.93;97931.31;4781805;29;20528;-68
2024/02/08 09:06:13;;;;;;;4.30;3.10;;;;;;;19.21;21.40;97944.59;4781738;29;20047;-67
2024/02/08 09:08:44;;;;;;;5.10;3.28;;;;;;;19.17;21.65;97935.22;4781768;29;20090;-67
2024/02/08 09:11:14;;;;;;;3.40;3.10;;;;;;;19.96;21.34;97947.00;4794632;29;20043;-66
2024/02/08 09:13:43;;;;;;;4.32;3.53;;;;;;;20.04;20.38;97954.31;4796796;29;20430;-65
2024/02/08 09:16:30;;;;;;;4.90;3.30;;;;;;;19.61;20.41;97951.31;4781274;29;20043;-73
2024/02/08 09:21:26;;;;;;;3.50;2.88;;;;;;;19.99;20.58;97929.09;4792579;29;20143;-65
2024/02/08 09:23:52;;;;;;;5.35;3.65;;;;;;;20.66;20.03;97949.47;4794142;29;20391;-67
2024/02/08 09:26:24;;;;;;;4.28;3.42;;;;;;;20.32;19.69;97940.63;4777797;29;20112;-66
2024/02/08 09:28:50;;;;;;;;;;;;;;;20.95;20.10;97956.91;4795108;29;20474;-68
2024/02/08 09:31:17;;;;;;;4.70;3.55;;;;;;;21.70;19.90;97922.56;4789803;29;19920;-66
2024/02/08 09:33:45;;;;;;;5.03;3.20;;;;;;;21.87;19.26;97948.44;4766664;29;20135;-68
2024/02/08 09:36:14;;;;;;;3.65;3.20;;;;;;;22.00;19.87;97952.66;4777568;29;20406;-70
2024/02/08 09:38:45;;;;;;;4.68;3.38;;;;;;;22.38;19.98;97957.31;4767554;29;20108;-71
2024/02/08 09:41:23;;;;;;;7.03;3.50;;;;;;;22.60;19.88;97959.94;4793463;29;20054;-68
2024/02/08 09:43:56;;;;;;;5.93;3.72;;;;;;;22.70;19.75;97958.13;4776456;29;20057;-66
2024/02/08 09:49:17;;;;;;;3.83;3.22;;;;;;;22.32;20.09;97965.78;4759425;29;20055;-67
2024/02/08 09:51:55;;;;;;;3.85;3.30;;;;;;;22.46;19.39;97972.56;4771518;29;20096;-67
2024/02/08 09:54:29;;;;;;;5.55;3.20;;;;;;;21.95;19.00;97968.97;4740290;29;20090;-69
2024/02/08 09:57:20;;;;;;;3.70;3.40;;;;;;;21.12;18.17;97989.88;4749350;29;20071;-66
2024/02/08 09:59:59;;;;;;;;;;;;;;;20.68;19.23;97981.91;4777103;29;20200;-64
2024/02/08 10:02:32;;;;;;;3.92;3.17;;;;;;;20.98;19.81;97983.91;4762810;29;20408;-65
2024/02/08 10:05:19;;;;;;;4.38;3.33;;;;;;;20.51;19.71;97964.75;4759995;29;20053;-64
2024/02/08 10:08:05;;;;;;;3.85;3.33;;;;;;;20.52;19.74;97977.00;4763321;29;20046;-65
2024/02/08 10:10:56;;;;;;;3.47;3.17;;;;;;;20.98;19.30;97983.91;4776478;29;20050;-66
2024/02/08 10:13:30;;;;;;;3.60;3.10;;;;;;;20.06;18.88;97971.69;4761699;29;20134;-65
2024/02/08 10:16:03;;;;;;;3.53;3.03;;;;;;;18.93;18.47;97986.09;4761902;29;20480;-66
2024/02/08 10:18:38;;;;;;;3.10;2.80;;;;;;;18.22;19.34;97970.03;4747889;29;20563;-69
2024/02/08 10:21:12;;;;;;;5.18;2.85;;;;;;;16.32;18.51;97993.66;4775644;29;20046;-66
2024/02/08 10:24:25;;;;;;;3.22;2.55;;;;;;;13.27;19.68;97998.75;4762349;29;20419;-67
2024/02/08 10:26:54;;;;;;;;;;;;;;;10.76;20.61;98025.94;4746660;29;20058;-65
2024/02/08 10:29:24;;;;;;;3.88;2.50;;;;;;;8.64;21.35;98036.41;4776795;29;19922;-68
2024/02/08 10:31:54;;;;;;;3.92;2.60;;;;;;;6.90;22.54;98058.88;4774218;29;20073;-64
2024/02/08 10:34:33;;;;;;;4.38;2.80;;;;;;;5.79;23.09;98061.00;4746910;29;20479;-65
2024/02/08 10:37:00;;;;;;;4.63;2.60;;;;;;;4.96;24.29;98072.56;4762813;29;20039;-67
2024/02/08 10:39:26;;;;;;;4.85;2.88;;;;;;;4.11;23.75;98068.44;4747660;29;20052;-66
2024/02/08 10:41:58;;;;;;;4.85;2.35;;;;;;;3.50;24.95;98065.56;4774763;29;20039;-64
2024/02/08 10:44:34;;;;;;;5.25;2.40;;;;;;;2.54;25.46;98067.00;4749152;29;20077;-65
2024/02/08 10:47:09;;;;;;;4.13;2.45;;;;;;;1.77;25.94;98067.19;4751807;29;20073;-65
2024/02/08 10:49:50;;;;;;;4.13;2.38;;;;;;;0.92;26.97;98080.81;4779633;29;20606;-64
2024/02/08 10:52:22;;;;;;;3.38;2.20;;;;;;;0.34;26.82;98095.13;4765807;29;20046;-65
2024/02/08 10:54:55;;;;;;;3.90;2.33;;;;;;;-0.15;28.47;98113.59;4793319;29;20051;-65
2024/02/08 10:57:57;;;;;;;5.25;2.53;;;;;;;-0.63;28.99;98098.72;4779217;29;20043;-65
2024/02/08 11:03:28;;;;;;;5.50;2.30;;;;;;;-1.20;29.19;98105.81;4750440;29;20043;-64
2024/02/08 11:06:01;;;;;;;5.30;2.30;;;;;;;-1.59;29.47;98099.41;4764724;29;20046;-64
2024/02/08 11:08:33;;;;;;;4.50;2.28;;;;;;;-1.80;30.72;98112.72;4763669;29;21633;-65
2024/02/08 11:11:09;;;;;;;4.57;2.30;;;;;;;-1.99;30.46;98128.66;4790663;29;20082;-64
2024/02/08 11:13:41;;;;;;;5.63;2.50;;;;;;;-2.21;30.67;98124.06;4779386;29;20070;-65
2024/02/08 11:16:23;;;;;;;6.60;2.38;;;;;;;-2.06;31.01;98138.69;4791605;29;20050;-63
2024/02/08 11:18:52;;;;;;;2.90;2.13;;;;;;;-1.90;31.59;98143.22;4773393;29;20051;-63
2024/02/08 11:21:24;;;;;;;3.88;2.45;;;;;;;-2.19;30.90;98158.91;4778278;29;20442;-64
2024/02/08 11:23:51;;;;;;;;;;;;;;;-2.64;31.43;98162.41;4779175;29;20388;-64
2024/02/08 11:26:25;;;;;;;3.88;2.50;;;;;;;-2.77;32.19;98164.75;4778743;29;20011;-64
2024/02/08 11:29:02;;;;;;;5.63;2.50;;;;;;;-2.93;32.20;98161.03;4779967;29;20047;-65
2024/02/08 11:31:41;;;;;;;3.40;2.05;;;;;;;-3.11;32.88;98158.16;4764923;29;20123;-63
2024/02/08 11:34:14;;;;;;;5.03;2.30;;;;;;;-3.44;32.83;98134.59;4777610;29;20136;-64
2024/02/08 11:36:52;;;;;;;5.72;2.10;;;;;;;-3.39;33.11;98139.78;4779458;29;20123;-64
2024/02/08 11:39:29;;;;;;;4.18;2.20;;;;;;;-3.56;33.78;98129.25;4790287;29;20097;-66
2024/02/08 11:42:00;;;;;;;3.78;2.55;;;;;;;-3.45;33.71;98160.88;4793020;29;20047;-65
2024/02/08 11:44:28;;;;;;;7.00;2.72;;;;;;;-3.34;34.05;98161.94;4749664;29;20511;-64
2024/02/08 11:46:58;;;;;;;5.60;3.08;;;;;;;-3.26;34.23;98161.25;4779364;29;20067;-65
2024/02/08 11:49:35;;;;;;;9.05;3.13;;;;;;;-3.03;34.43;98165.09;4779055;29;20062;-64
2024/02/08 11:52:11;;;;;;;6.00;2.67;;;;;;;-3.00;34.16;98182.09;4771349;29;20054;-63
2024/02/08 11:54:40;;;;;;;6.95;3.00;;;;;;;-3.17;34.45;98171.59;4778157;29;20137;-63
2024/02/08 11:57:11;;;;;;;7.18;3.05;;;;;;;-3.20;34.25;98182.56;4777099;29;20046;-64
2024/02/08 11:59:39;;;;;;;6.75;2.75;;;;;;;-3.39;34.32;98181.31;4764404;29;20145;-63
2024/02/08 12:02:09;;;;;;;5.43;2.67;;;;;;;-3.60;34.59;98176.66;4787701;29;20055;-65
2024/02/08 12:04:36;;;;;;;5.15;2.22;;;;;;;-3.70;34.77;98189.97;4791035;29;20092;-63
2024/02/08 12:07:04;;;;;;;5.10;2.78;;;;;;;-4.19;34.70;98154.13;4763185;29;20082;-64
2024/02/08 12:09:39;;;;;;;3.97;2.35;;;;;;;-4.37;35.74;98178.28;4767430;29;20522;-65
2024/02/08 12:12:07;;;;;;;4.88;2.40;;;;;;;-4.32;35.74;98199.59;4774310;29;20086;-65
2024/02/08 12:14:38;;;;;;;7.78;2.90;;;;;;;-4.49;36.18;98211.84;4782838;29;20103;-64
2024/02/08 12:17:06;;;;;;;3.47;2.30;;;;;;;-4.66;36.10;98205.47;4783330;29;20047;-62
2024/02/08 12:19:33;;;;;;;6.13;2.42;;;;;;;-4.78;36.16;98217.00;4765659;29;20316;-63
2024/02/08 12:22:03;;;;;;;5.18;2.67;;;;;;;-4.90;36.08;98217.53;4794232;29;20475;-65
2024/02/08 12:24:31;;;;;;;4.53;2.70;;;;;;;-5.20;36.96;98174.41;4795284;29;20047;-66
2024/02/08 12:27:07;;;;;;;4.40;1.83;;;;;;;-5.14;36.90;98193.19;4775630;29;20296;-65
2024/02/08 12:29:39;;;;;;;4.70;2.50;;;;;;;-5.21;37.37;98191.31;4766707;29;20092;-65
2024/02/08 12:32:16;;;;;;;5.60;2.25;;;;;;;-5.21;37.19;98192.97;4768121;29;20057;-66
2024/02/08 12:34:47;;;;;;;6.95;2.35;;;;;;;-5.15;37.77;98216.84;4795436;29;20626;-66
2024/02/08 12:37:15;;;;;;;4.63;1.92;;;;;;;-5.21;37.13;98211.63;4784679;29;20087;-67
2024/02/08 12:39:44;;;;;;;4.65;2.30;;;;;;;-5.10;37.67;98226.25;4783201;29;20136;-66
2024/02/08 12:42:13;;;;;;;7.32;2.63;;;;;;;-4.94;37.92;98237.72;4781569;29;20042;-65
2024/02/08 12:44:47;;;;;;;5.72;2.50;;;;;;;-4.86;37.82;98241.34;4797081;29;20602;-66
2024/02/08 12:47:17;;;;;;;4.88;2.60;;;;;;;-4.85;37.74;98251.53;4793991;29;20169;-64
2024/02/08 12:49:47;;;;;;;5.28;2.28;;;;;;;-4.87;37.99;98244.69;4766475;29;20518;-64
2024/02/08 12:52:15;;;;;;;6.43;2.45;;;;;;;-4.80;37.88;98240.63;4767461;29;20458;-64
2024/02/08 12:54:42;;;;;;;6.35;3.00;;;;;;;-4.82;38.05;98248.19;4780741;29;20057;-66
2024/02/08 12:57:11;;;;;;;6.20;2.67;;;;;;;-4.82;38.33;98250.72;4795440;29;20157;-64
2024/02/08 12:59:38;;;;;;;6.53;2.60;;;;;;;-4.86;38.20;98251.50;4795490;29;20143;-65
2024/02/08 13:02:25;;;;;;;6.20;3.00;;;;;;;-4.89;38.62;98256.47;4761760;29;20431;-65
2024/02/08 13:04:54;;;;;;;5.50;2.80;;;;;;;-4.93;38.58;98252.97;4764453;29;20138;-65
2024/02/08 13:07:25;;;;;;;4.88;2.33;;;;;;;-4.95;38.54;98252.06;4767851;29;20049;-66
2024/02/08 13:10:03;;;;;;;6.13;2.40;;;;;;;-5.03;38.15;98273.84;4781016;29;20051;-66
2024/02/08 13:12:30;;;;;;;3.47;2.00;;;;;;;-5.37;39.00;98260.16;4764034;29;20082;-63
2024/02/08 13:15:06;;;;;;;6.00;2.67;;;;;;;-5.49;39.33;98265.72;4780308;29;20500;-64
2024/02/08 13:17:33;;;;;;;3.83;2.13;;;;;;;-5.87;39.59;98251.06;4778725;29;20154;-66
2024/02/08 13:20:14;;;;;;;4.28;2.00;;;;;;;-6.10;39.52;98276.53;4780702;29;20634;-64
2024/02/08 13:22:44;;;;;;;4.10;2.25;;;;;;;-6.12;39.93;98287.41;4797019;29;20518;-66
2024/02/08 13:25:15;;;;;;;6.10;2.97;;;;;;;-6.39;39.79;98253.63;4781131;29;20081;-64
2024/02/08 13:27:44;;;;;;;3.95;2.05;;;;;;;-6.42;40.08;98266.19;4780387;29;20081;-64
2024/02/08 13:30:17;;;;;;;5.30;2.35;;;;;;;-6.33;40.25;98285.03;4780455;29;20053;-65
2024/02/08 13:32:49;;;;;;;4.82;2.50;;;;;;;-6.56;40.28;98274.97;4759254;29;20046;-65
2024/02/08 13:35:18;;;;;;;5.53;2.55;;;;;;;-6.65;40.18;98275.50;4778324;29;20051;-66
2024/02/08 13:37:55;;;;;;;4.45;2.30;;;;;;;-6.72;40.35;98293.81;4795014;29;20483;-65
2024/02/08 13:40:22;;;;;;;4.50;2.05;;;;;;;-6.81;40.36;98307.00;4778338;29;20069;-63
2024/02/08 13:42:50;;;;;;;6.63;2.00;;;;;;;-6.80;40.74;98313.78;4781770;29;20086;-64
2024/02/08 13:45:16;;;;;;;4.97;2.10;;;;;;;-7.04;40.71;98299.41;4776851;29;20061;-66
2024/02/08 13:47:54;;;;;;;5.43;2.53;;;;;;;-7.07;40.96;98314.47;4794212;29;20055;-66
2024/02/08 13:50:28;;;;;;;4.03;2.45;;;;;;;-7.23;40.94;98314.72;4774405;29;20058;-66
2024/02/08 13:52:54;;;;;;;3.65;2.05;;;;;;;-7.39;41.14;98304.00;4778709;29;20050;-65